Time;durP1;ratioP1;P1;durP2;ratioP2;P2;SDS_P1;SDS_P2;PMS_P1;PMS_P2;Temp;Humidity;BMP_temperature;BMP_pressure;BME280_temperature;BME280_humidity;BME280_pressure;Samples;Min_cycle;Max_cycle;Signal;HPM_P1;HPM_P2
2023/09/05 00:00:20;;;;;;;4.32;2.75;;;19.20;80.50;;;;;;4965466;28;20120;-74
2023/09/05 00:02:48;;;;;;;5.90;2.42;;;19.20;80.20;;;;;;4963643;29;20042;-75
2023/09/05 00:05:14;;;;;;;5.68;2.72;;;19.10;80.40;;;;;;4965360;29;20027;-74
2023/09/05 00:07:40;;;;;;;4.43;2.55;;;19.10;80.70;;;;;;4964751;28;20047;-75
2023/09/05 00:10:10;;;;;;;5.32;2.58;;;19.10;80.50;;;;;;4965124;29;20031;-75
2023/09/05 00:12:40;;;;;;;8.88;2.78;;;19.00;80.80;;;;;;4946729;29;20035;-75
2023/09/05 00:15:11;;;;;;;6.45;2.53;;;18.90;80.50;;;;;;4964989;28;20043;-77
2023/09/05 00:17:38;;;;;;;4.60;2.38;;;18.90;80.10;;;;;;4964333;29;20062;-75
2023/09/05 00:20:08;;;;;;;3.97;2.42;;;18.80;80.00;;;;;;4963498;29;20050;-75
2023/09/05 00:22:34;;;;;;;3.38;1.90;;;18.80;79.40;;;;;;4964658;29;20103;-76
2023/09/05 00:25:00;;;;;;;4.82;2.47;;;18.80;78.60;;;;;;4963881;29;20019;-74
2023/09/05 00:27:26;;;;;;;5.22;2.40;;;18.80;78.80;;;;;;4963559;29;20062;-74
2023/09/05 00:29:52;;;;;;;5.18;2.30;;;18.80;78.70;;;;;;4963290;29;20344;-74
2023/09/05 07:19:01;;;;;;;4.15;2.33;;;20.90;80.90;;;;;;5012994;23;20120;-72
2023/09/05 07:21:27;;;;;;;6.35;2.70;;;21.10;80.60;;;;;;4957029;29;20062;-73
2023/09/05 07:23:52;;;;;;;5.40;2.25;;;21.20;79.50;;;;;;4946528;29;20027;-73
2023/09/05 07:26:18;;;;;;;8.57;2.88;;;21.30;79.60;;;;;;4949447;29;20095;-75
2023/09/05 07:28:46;;;;;;;4.75;2.10;;;21.50;80.10;;;;;;4946762;29;20023;-75
2023/09/05 07:31:14;;;;;;;6.15;2.10;;;21.50;79.20;;;;;;4946213;29;20333;-75
2023/09/05 07:33:41;;;;;;;3.90;2.08;;;21.60;79.00;;;;;;4949934;29;20285;-73
2023/09/05 07:36:07;;;;;;;4.70;1.90;;;21.70;78.30;;;;;;4944979;29;20069;-73
2023/09/05 07:38:32;;;;;;;4.07;1.80;;;21.80;78.00;;;;;;4945541;29;20045;-74
2023/09/05 07:41:06;;;;;;;3.50;1.63;;;21.80;77.50;;;;;;4945325;29;20039;-74
2023/09/05 07:43:35;;;;;;;3.53;1.73;;;21.90;77.70;;;;;;4945548;29;20028;-75
2023/09/05 07:46:01;;;;;;;3.75;1.73;;;22.00;77.20;;;;;;4941592;29;20082;-74
2023/09/05 07:48:27;;;;;;;3.33;1.30;;;22.00;77.10;;;;;;4945354;29;20106;-74
2023/09/05 07:51:04;;;;;;;3.85;1.95;;;22.10;76.70;;;;;;4945959;29;20036;-73
2023/09/05 07:53:37;;;;;;;5.03;1.70;;;22.20;76.50;;;;;;4945230;29;20039;-74
2023/09/05 07:56:08;;;;;;;3.75;1.60;;;22.20;76.20;;;;;;4944264;29;20032;-74
2023/09/05 07:58:37;;;;;;;3.40;1.55;;;22.20;75.90;;;;;;4944960;29;20035;-74
2023/09/05 08:01:03;;;;;;;3.58;1.63;;;22.30;76.40;;;;;;4945851;29;20249;-75
2023/09/05 08:03:38;;;;;;;2.88;1.50;;;22.40;75.70;;;;;;4946179;29;20087;-73
2023/09/05 08:06:05;;;;;;;4.50;1.63;;;22.50;75.10;;;;;;4944697;29;20276;-73
2023/09/05 08:08:39;;;;;;;2.53;1.42;;;22.50;75.00;;;;;;4945098;29;20087;-74
2023/09/05 08:11:11;;;;;;;3.75;1.48;;;22.50;75.00;;;;;;4928592;29;20341;-73
2023/09/05 08:13:39;;;;;;;3.22;1.60;;;22.60;74.80;;;;;;4937928;29;20032;-73
2023/09/05 08:16:20;;;;;;;4.70;1.58;;;22.60;74.50;;;;;;4949353;29;20324;-74
2023/09/05 08:19:11;;;;;;;4.03;1.58;;;22.70;74.80;;;;;;4927787;29;20044;-73
2023/09/05 08:21:37;;;;;;;4.50;1.60;;;22.80;74.50;;;;;;4926708;29;20107;-73
2023/09/05 08:24:05;;;;;;;3.45;1.50;;;22.80;73.60;;;;;;4926228;29;20024;-72
2023/09/05 08:26:55;;;;;;;;;;;22.80;73.80;;;;;;4943377;29;20038;-74
2023/09/05 08:29:27;;;;;;;4.05;1.48;;;22.80;74.20;;;;;;4928344;29;20017;-74
2023/09/05 08:31:54;;;;;;;3.53;1.83;;;22.90;74.40;;;;;;4944464;29;20040;-73
2023/09/05 08:34:21;;;;;;;3.25;1.38;;;22.90;73.80;;;;;;4943879;29;20330;-75
2023/09/05 08:36:46;;;;;;;3.03;1.27;;;23.00;73.70;;;;;;4944487;29;20026;-75
2023/09/05 08:39:12;;;;;;;5.03;1.48;;;23.00;73.50;;;;;;4945069;29;20028;-74
2023/09/05 08:41:41;;;;;;;2.53;1.40;;;23.00;73.60;;;;;;4945734;29;20028;-76
2023/09/05 08:44:08;;;;;;;3.10;1.30;;;23.10;73.50;;;;;;4944265;29;20032;-75
2023/09/05 08:46:37;;;;;;;3.70;1.40;;;23.20;73.40;;;;;;4945607;29;20095;-74
2023/09/05 08:49:03;;;;;;;4.63;1.63;;;23.30;73.00;;;;;;4944915;29;20044;-74
2023/09/05 08:51:33;;;;;;;7.65;1.80;;;23.30;73.20;;;;;;4945385;29;20083;-78
2023/09/05 08:54:06;;;;;;;4.03;1.55;;;23.50;72.60;;;;;;4945064;29;20273;-76
2023/09/05 08:56:43;;;;;;;3.20;1.30;;;23.50;71.80;;;;;;4944407;29;20075;-76
2023/09/05 08:59:13;;;;;;;3.55;1.38;;;23.60;71.70;;;;;;4942781;29;20106;-74
2023/09/05 09:01:41;;;;;;;3.25;1.35;;;23.60;71.70;;;;;;4943980;29;20047;-73
2023/09/05 09:04:08;;;;;;;5.17;1.40;;;23.60;71.80;;;;;;4944084;29;20087;-75
2023/09/05 09:06:52;;;;;;;3.60;1.52;;;23.70;72.20;;;;;;4944933;29;20641;-75
2023/09/05 09:09:41;;;;;;;3.95;1.38;;;23.90;71.60;;;;;;4944664;29;20384;-75
2023/09/05 09:12:07;;;;;;;2.65;1.50;;;24.00;71.50;;;;;;4944938;29;20332;-75
2023/09/05 09:14:52;;;;;;;2.83;1.20;;;24.00;70.40;;;;;;4944995;29;20213;-75
2023/09/05 09:17:18;;;;;;;3.00;1.35;;;24.10;70.90;;;;;;4944473;29;20107;-74
2023/09/05 09:19:44;;;;;;;3.33;1.20;;;24.20;70.70;;;;;;4945190;29;20042;-74
2023/09/05 09:22:10;;;;;;;3.97;1.38;;;24.30;70.80;;;;;;4944741;29;20055;-74
2023/09/05 09:24:41;;;;;;;2.92;1.50;;;24.30;70.80;;;;;;4943938;29;20034;-75
2023/09/05 09:27:10;;;;;;;4.57;1.48;;;24.30;70.80;;;;;;4944812;29;20135;-76
2023/09/05 09:29:42;;;;;;;2.70;1.10;;;24.40;70.70;;;;;;4944670;29;20039;-77
2023/09/05 09:32:08;;;;;;;3.00;1.20;;;24.50;69.50;;;;;;4944639;29;20043;-75
2023/09/05 09:34:40;;;;;;;3.28;1.20;;;24.60;70.00;;;;;;4945364;29;20040;-75
2023/09/05 09:37:06;;;;;;;2.30;1.00;;;24.50;69.70;;;;;;4945248;29;20032;-73
2023/09/05 09:39:41;;;;;;;7.20;1.52;;;24.50;69.30;;;;;;4945728;29;20111;-75
2023/09/05 09:42:06;;;;;;;5.30;1.13;;;24.50;69.90;;;;;;4944887;29;20036;-74
2023/09/05 09:44:39;;;;;;;4.55;1.30;;;24.60;70.00;;;;;;4944755;29;20040;-75
2023/09/05 09:47:05;;;;;;;3.13;1.33;;;24.70;70.10;;;;;;4945611;29;20035;-75
2023/09/05 09:49:30;;;;;;;3.42;1.60;;;24.70;69.50;;;;;;4946942;29;20039;-75
2023/09/05 09:52:10;;;;;;;1.98;0.93;;;24.80;69.60;;;;;;4947874;29;20015;-74
2023/09/05 09:54:39;;;;;;;2.22;0.90;;;24.80;69.50;;;;;;4929977;29;20032;-74
2023/09/05 09:57:06;;;;;;;2.70;1.23;;;24.90;69.60;;;;;;4947305;29;20036;-76
2023/09/05 09:59:35;;;;;;;7.95;1.85;;;25.00;69.10;;;;;;4947759;29;20032;-75
2023/09/05 10:02:26;;;;;;;4.00;1.50;;;25.00;69.30;;;;;;4946019;29;20083;-74
2023/09/05 10:04:53;;;;;;;3.83;1.65;;;25.00;69.00;;;;;;4947604;29;20042;-74
2023/09/05 10:07:19;;;;;;;3.15;1.20;;;25.10;68.70;;;;;;4947272;29;20377;-74
2023/09/05 10:09:47;;;;;;;2.40;1.30;;;25.20;68.60;;;;;;4947668;29;20035;-75
2023/09/05 10:12:18;;;;;;;3.65;1.00;;;25.30;68.20;;;;;;4947227;29;20190;-74
2023/09/05 10:14:59;;;;;;;2.20;0.90;;;25.30;68.00;;;;;;4946456;29;20107;-77
2023/09/05 10:17:36;;;;;;;2.63;1.15;;;25.40;67.80;;;;;;4946929;29;20328;-77
2023/09/05 10:20:09;;;;;;;2.20;1.10;;;25.40;67.40;;;;;;4928469;29;20036;-76
2023/09/05 10:22:44;;;;;;;3.35;1.00;;;25.50;67.70;;;;;;4917539;29;20339;-75
2023/09/05 10:25:17;;;;;;;3.30;1.10;;;25.50;67.60;;;;;;4928049;29;20027;-76
2023/09/05 10:27:43;;;;;;;2.38;1.23;;;25.70;67.80;;;;;;4929842;29;20322;-76
2023/09/05 10:30:19;;;;;;;3.75;1.23;;;25.90;67.00;;;;;;4945753;29;20063;-76
2023/09/05 10:32:53;;;;;;;2.75;1.20;;;25.90;67.50;;;;;;4946889;29;20067;-79
2023/09/05 10:35:46;;;;;;;1.60;0.90;;;26.10;66.80;;;;;;4947117;29;20036;-81
2023/09/05 10:38:14;;;;;;;2.25;0.90;;;26.10;65.70;;;;;;4936408;29;20365;-77
2023/09/05 10:40:45;;;;;;;2.05;1.00;;;26.10;66.10;;;;;;4927234;29;20272;-75
2023/09/05 10:43:22;;;;;;;2.45;1.05;;;26.20;66.10;;;;;;4927602;29;20032;-73
2023/09/05 10:46:02;;;;;;;2.67;1.40;;;26.30;66.00;;;;;;4911055;29;20062;-73
2023/09/05 10:48:45;;;;;;;2.47;0.95;;;26.30;65.70;;;;;;4927238;29;20435;-74
2023/09/05 10:51:13;;;;;;;4.93;1.08;;;26.50;66.20;;;;;;4927714;29;20031;-74
2023/09/05 10:53:45;;;;;;;2.35;1.02;;;26.70;65.20;;;;;;4927011;29;20028;-76
2023/09/05 10:56:45;;;;;;;3.28;1.05;;;26.80;64.50;;;;;;4933418;29;20036;-75
2023/09/05 10:59:27;;;;;;;2.97;0.85;;;26.90;63.70;;;;;;4934834;29;20032;-75
2023/09/05 11:02:08;;;;;;;6.25;1.27;;;27.10;63.30;;;;;;4952577;29;20051;-73
2023/09/05 11:04:35;;;;;;;2.33;1.05;;;27.30;63.20;;;;;;4947729;29;20042;-75
2023/09/05 11:07:13;;;;;;;2.92;0.90;;;27.30;64.10;;;;;;4947024;29;20043;-73
2023/09/05 11:09:40;;;;;;;6.53;1.58;;;27.50;63.10;;;;;;4929876;29;20024;-74
2023/09/05 11:12:07;;;;;;;2.90;1.25;;;27.80;63.60;;;;;;4946506;29;20046;-76
2023/09/05 11:14:34;;;;;;;2.40;0.95;;;28.30;62.00;;;;;;4946785;29;20035;-73
2023/09/05 11:17:01;;;;;;;5.70;1.38;;;28.70;61.90;;;;;;4946771;29;20023;-74
2023/09/05 11:19:42;;;;;;;14.68;1.95;;;29.20;61.20;;;;;;4947904;29;20047;-77
2023/09/05 11:22:22;;;;;;;3.00;1.20;;;30.10;60.00;;;;;;4947160;29;20027;-77
2023/09/05 11:25:08;;;;;;;2.42;0.98;;;30.90;59.00;;;;;;4930504;29;20031;-77
2023/09/05 11:27:36;;;;;;;6.10;1.00;;;31.60;57.60;;;;;;4947271;29;20038;-77
2023/09/05 11:30:38;;;;;;;2.47;1.00;;;32.40;56.70;;;;;;4947044;29;20063;-76
2023/09/05 11:33:14;;;;;;;3.97;1.17;;;33.00;55.50;;;;;;4946372;29;20032;-75
2023/09/05 11:35:48;;;;;;;3.15;1.00;;;33.70;55.40;;;;;;4946405;29;20074;-77
2023/09/05 11:38:26;;;;;;;2.72;1.00;;;34.70;53.60;;;;;;4945398;29;20206;-75
2023/09/05 11:40:57;;;;;;;2.20;0.90;;;35.30;52.40;;;;;;4946547;29;20058;-76
2023/09/05 11:43:23;;;;;;;;;;;35.40;51.20;;;;;;4945011;29;20094;-73
2023/09/05 11:45:54;;;;;;;4.63;0.95;;;35.30;51.20;;;;;;4946189;29;20193;-74
2023/09/05 11:48:23;;;;;;;2.45;0.80;;;35.70;50.90;;;;;;4945694;29;20386;-74
2023/09/05 11:50:49;;;;;;;2.10;0.60;;;36.10;50.10;;;;;;4945187;29;20035;-74
2023/09/05 11:53:18;;;;;;;2.70;0.60;;;36.40;49.50;;;;;;4945281;29;20031;-75
2023/09/05 11:55:44;;;;;;;2.63;0.90;;;36.10;49.60;;;;;;4945834;29;20023;-73
2023/09/05 11:58:11;;;;;;;1.83;0.65;;;36.20;50.20;;;;;;4945583;29;20074;-74
2023/09/05 12:00:44;;;;;;;1.60;0.70;;;37.00;49.70;;;;;;4946181;29;20035;-74
2023/09/05 12:03:14;;;;;;;2.58;0.70;;;37.60;48.80;;;;;;4945361;29;20067;-74
2023/09/05 12:05:41;;;;;;;3.15;0.70;;;37.20;47.70;;;;;;4945645;29;20054;-75
2023/09/05 12:08:07;;;;;;;2.53;0.73;;;37.50;47.90;;;;;;4945102;29;20031;-72
2023/09/05 12:10:42;;;;;;;2.70;1.10;;;37.40;47.60;;;;;;4945384;29;20083;-74
2023/09/05 12:13:08;;;;;;;3.03;1.00;;;37.90;47.60;;;;;;4945323;29;20039;-73
2023/09/05 12:15:36;;;;;;;2.20;1.00;;;37.90;47.10;;;;;;4946004;29;20328;-74
2023/09/05 12:18:04;;;;;;;2.20;0.70;;;37.90;47.50;;;;;;4943834;29;20115;-74
2023/09/05 12:20:33;;;;;;;1.85;0.63;;;38.60;47.10;;;;;;4945780;29;20035;-74
2023/09/05 12:23:00;;;;;;;2.05;0.80;;;39.30;47.50;;;;;;4945308;29;20270;-74
2023/09/05 12:25:28;;;;;;;1.70;0.90;;;40.40;47.70;;;;;;4945788;29;20183;-76
2023/09/05 12:27:55;;;;;;;3.17;0.80;;;40.30;47.30;;;;;;4945701;29;20031;-73
2023/09/05 12:30:31;;;;;;;;;;;40.30;47.10;;;;;;4945684;29;20036;-75
2023/09/05 12:33:02;;;;;;;1.80;0.90;;;39.70;46.90;;;;;;4945702;29;19907;-75
2023/09/05 12:35:29;;;;;;;2.50;0.80;;;40.40;47.10;;;;;;4945420;29;20131;-74
2023/09/05 12:37:56;;;;;;;2.10;0.70;;;40.50;46.90;;;;;;4945290;29;20027;-76
2023/09/05 12:40:24;;;;;;;2.17;0.70;;;41.00;46.50;;;;;;4944997;29;20035;-74
2023/09/05 12:42:50;;;;;;;3.00;0.65;;;41.10;46.30;;;;;;4946261;29;20035;-74
2023/09/05 12:45:17;;;;;;;2.72;0.63;;;41.90;45.50;;;;;;4945175;29;20075;-76
2023/09/05 12:47:43;;;;;;;2.08;0.80;;;41.80;45.70;;;;;;4945768;29;20035;-75
2023/09/05 12:50:14;;;;;;;3.83;1.17;;;42.00;45.00;;;;;;4944678;29;20058;-75
2023/09/05 12:52:44;;;;;;;1.25;0.60;;;42.30;44.90;;;;;;4943769;29;20147;-75
2023/09/05 12:55:11;;;;;;;2.17;0.80;;;41.80;44.90;;;;;;4936345;29;20186;-74
2023/09/05 12:57:41;;;;;;;3.30;1.00;;;41.70;44.90;;;;;;4945183;29;20344;-75
2023/09/05 13:00:11;;;;;;;1.95;1.10;;;42.10;45.90;;;;;;4944725;29;20280;-75
2023/09/05 13:02:39;;;;;;;2.55;0.80;;;43.10;45.00;;;;;;4925429;29;20336;-75
2023/09/05 13:05:04;;;;;;;;;;;43.20;43.20;;;;;;4938958;29;20106;-75
2023/09/05 13:07:30;;;;;;;2.17;0.60;;;43.20;43.50;;;;;;4945406;29;19907;-76
2023/09/05 13:09:56;;;;;;;1.98;0.60;;;43.70;42.70;;;;;;4945259;29;20035;-75
2023/09/05 13:12:22;;;;;;;2.38;0.80;;;44.00;42.10;;;;;;4943422;29;20095;-74
2023/09/05 13:14:48;;;;;;;3.40;0.70;;;44.00;43.50;;;;;;4945390;29;20027;-74
2023/09/05 13:17:15;;;;;;;2.53;0.40;;;43.70;42.10;;;;;;4943254;29;20043;-74
2023/09/05 13:19:41;;;;;;;1.55;0.80;;;44.40;42.70;;;;;;4944537;29;20031;-74
2023/09/05 13:22:07;;;;;;;1.55;0.90;;;44.90;43.10;;;;;;4948744;29;20027;-74
2023/09/05 13:24:33;;;;;;;3.47;0.80;;;44.70;43.30;;;;;;4949116;29;20046;-76
2023/09/05 13:27:00;;;;;;;2.03;0.73;;;44.50;42.70;;;;;;4928666;29;20095;-73
2023/09/05 13:29:26;;;;;;;1.23;0.60;;;44.70;42.50;;;;;;4929538;29;20028;-74
2023/09/05 13:31:51;;;;;;;2.45;1.02;;;44.30;43.20;;;;;;4929650;29;20341;-74
2023/09/05 13:34:17;;;;;;;1.48;0.80;;;44.80;43.00;;;;;;4929905;29;20028;-73
2023/09/05 13:36:43;;;;;;;2.20;0.70;;;44.10;42.90;;;;;;4948197;29;20035;-75
2023/09/05 13:39:10;;;;;;;3.22;1.02;;;43.40;43.50;;;;;;4946520;29;20233;-76
2023/09/05 13:41:36;;;;;;;2.25;0.70;;;42.90;43.50;;;;;;4947332;29;20032;-73
2023/09/05 13:44:02;;;;;;;2.10;0.60;;;42.50;44.30;;;;;;4946762;29;20038;-74
2023/09/05 13:46:28;;;;;;;2.35;0.73;;;43.10;44.10;;;;;;4948376;29;20206;-75
2023/09/05 13:48:53;;;;;;;2.97;0.68;;;42.80;43.60;;;;;;4948334;29;20094;-73
2023/09/05 13:51:22;;;;;;;2.67;0.75;;;42.80;43.70;;;;;;4947814;29;20282;-74
2023/09/05 13:53:52;;;;;;;2.88;1.25;;;43.30;44.10;;;;;;4948142;29;20039;-72
2023/09/05 13:56:21;;;;;;;1.75;0.80;;;43.30;43.70;;;;;;4942522;29;20110;-74
2023/09/05 13:58:47;;;;;;;1.40;0.50;;;42.70;43.60;;;;;;4948198;29;20043;-74
2023/09/05 14:01:16;;;;;;;1.33;0.60;;;43.20;44.00;;;;;;4931167;29;20031;-75
2023/09/05 14:03:45;;;;;;;2.45;0.90;;;43.80;43.20;;;;;;4946868;29;20205;-74
2023/09/05 14:06:13;;;;;;;2.10;0.57;;;44.30;43.60;;;;;;4947480;29;20213;-75
2023/09/05 14:08:39;;;;;;;3.47;0.70;;;45.50;42.40;;;;;;4947616;29;20031;-75
2023/09/05 14:11:04;;;;;;;1.52;0.80;;;45.20;42.20;;;;;;4945923;29;20329;-74
2023/09/05 14:13:30;;;;;;;3.30;0.90;;;44.40;42.20;;;;;;4930217;29;20023;-73
2023/09/05 14:15:59;;;;;;;1.75;0.65;;;44.20;42.70;;;;;;4947738;29;20036;-74
2023/09/05 14:18:26;;;;;;;2.63;0.80;;;44.60;42.70;;;;;;4929984;29;20043;-74
2023/09/05 14:21:09;;;;;;;2.20;0.70;;;45.20;42.00;;;;;;4943317;29;20028;-74
2023/09/05 14:23:40;;;;;;;1.55;0.68;;;44.80;42.10;;;;;;4928533;29;20309;-74
2023/09/05 14:26:06;;;;;;;1.25;0.60;;;44.50;43.40;;;;;;4929172;29;20344;-75
2023/09/05 14:28:43;;;;;;;1.65;0.90;;;45.40;41.90;;;;;;4928451;29;20027;-75
2023/09/05 14:31:09;;;;;;;1.50;0.70;;;45.50;42.40;;;;;;4927804;29;20107;-75
2023/09/05 14:33:35;;;;;;;3.30;0.65;;;46.10;41.10;;;;;;4927988;29;20047;-74
2023/09/05 14:36:04;;;;;;;1.58;0.63;;;46.20;40.90;;;;;;4928469;29;20031;-76
2023/09/05 14:38:29;;;;;;;2.50;0.82;;;46.00;41.10;;;;;;4928361;29;20059;-75
2023/09/05 14:40:55;;;;;;;2.03;0.60;;;46.20;41.30;;;;;;4928394;29;20087;-75
2023/09/05 14:43:23;;;;;;;2.97;0.70;;;46.00;41.20;;;;;;4927945;29;20230;-76
2023/09/05 14:45:57;;;;;;;1.95;0.70;;;45.90;41.40;;;;;;4943222;29;20020;-85
2023/09/05 14:48:23;;;;;;;1.63;0.70;;;46.00;41.20;;;;;;4946674;29;20050;-74
2023/09/05 14:50:49;;;;;;;3.22;0.77;;;46.00;41.20;;;;;;4947113;29;20043;-73
2023/09/05 14:53:15;;;;;;;2.53;0.95;;;45.70;41.60;;;;;;4946667;29;20047;-73
2023/09/05 14:55:41;;;;;;;2.28;0.70;;;45.00;41.90;;;;;;4942423;29;20095;-73
2023/09/05 14:58:06;;;;;;;2.72;0.65;;;45.30;42.20;;;;;;4945913;29;20035;-73
2023/09/05 15:00:32;;;;;;;1.42;0.70;;;45.50;41.70;;;;;;4946999;29;20032;-73
2023/09/05 15:02:58;;;;;;;3.25;0.70;;;45.80;41.50;;;;;;4946024;29;20060;-73
2023/09/05 15:05:27;;;;;;;1.48;0.68;;;45.50;41.40;;;;;;4926518;29;20290;-74
2023/09/05 15:07:53;;;;;;;1.77;0.70;;;45.30;41.70;;;;;;4943004;29;20239;-74
2023/09/05 15:10:18;;;;;;;1.27;0.68;;;45.90;41.60;;;;;;4927475;29;20103;-72
2023/09/05 15:12:44;;;;;;;1.35;0.70;;;46.50;40.60;;;;;;4927731;29;20083;-74
2023/09/05 15:15:10;;;;;;;1.88;0.47;;;46.10;40.70;;;;;;4941628;29;20059;-74
2023/09/05 15:17:36;;;;;;;1.85;0.60;;;46.50;41.10;;;;;;4945360;29;20055;-73
2023/09/05 15:20:03;;;;;;;2.13;0.90;;;46.40;40.90;;;;;;4946185;29;20040;-75
2023/09/05 15:22:29;;;;;;;2.05;0.77;;;46.90;40.50;;;;;;4946509;29;20031;-74
2023/09/05 15:24:55;;;;;;;1.40;0.85;;;46.20;40.80;;;;;;4940857;29;20365;-74
2023/09/05 15:27:21;;;;;;;2.30;0.63;;;45.90;40.80;;;;;;4945874;29;20050;-74
2023/09/05 15:29:47;;;;;;;1.83;0.68;;;45.80;41.30;;;;;;4945769;29;20301;-74
2023/09/05 15:32:12;;;;;;;2.08;0.70;;;46.00;41.60;;;;;;4946005;29;20062;-76
2023/09/05 15:34:38;;;;;;;1.95;0.75;;;46.00;41.30;;;;;;4946942;29;20032;-75
2023/09/05 15:37:04;;;;;;;3.58;0.80;;;46.50;41.40;;;;;;4955426;29;20031;-74
2023/09/05 15:39:29;;;;;;;2.15;0.80;;;46.70;41.00;;;;;;4974691;29;20019;-71
2023/09/05 15:41:56;;;;;;;3.65;0.80;;;46.50;40.90;;;;;;4977780;28;20046;-71
2023/09/05 15:44:23;;;;;;;2.10;1.00;;;46.60;40.80;;;;;;4975232;28;20058;-72
2023/09/05 15:46:48;;;;;;;2.25;0.85;;;46.50;40.80;;;;;;4950688;29;20039;-72
2023/09/05 15:49:14;;;;;;;2.85;0.90;;;46.30;41.10;;;;;;4945873;29;20238;-73
2023/09/05 15:51:43;;;;;;;1.80;0.80;;;46.40;41.00;;;;;;4946259;29;20043;-75
2023/09/05 15:54:09;;;;;;;1.80;0.85;;;46.60;41.10;;;;;;4945605;29;20047;-73
2023/09/05 15:56:34;;;;;;;1.98;0.80;;;46.90;40.80;;;;;;4945943;29;20032;-72
2023/09/05 15:59:00;;;;;;;1.88;0.82;;;46.60;41.30;;;;;;4945965;29;20051;-73
2023/09/05 16:01:26;;;;;;;3.38;0.90;;;45.00;42.10;;;;;;4945801;29;20036;-74
2023/09/05 16:03:52;;;;;;;1.88;0.85;;;44.20;42.70;;;;;;4960930;29;20034;-73
2023/09/05 16:06:17;;;;;;;2.50;1.00;;;44.30;42.90;;;;;;4945600;29;20309;-74
2023/09/05 16:08:43;;;;;;;1.98;0.77;;;44.10;42.80;;;;;;4946291;29;20042;-74
2023/09/05 16:11:16;;;;;;;1.63;0.80;;;44.20;43.00;;;;;;4944121;29;20082;-74
2023/09/05 16:13:44;;;;;;;2.25;1.08;;;44.00;42.60;;;;;;4945889;29;20048;-73
2023/09/05 16:16:15;;;;;;;2.30;0.90;;;43.90;42.80;;;;;;4945236;29;20035;-73
2023/09/05 16:18:41;;;;;;;2.13;0.70;;;43.90;42.70;;;;;;4944386;29;20063;-75
2023/09/05 16:21:07;;;;;;;1.75;0.80;;;43.50;43.70;;;;;;4945642;29;20031;-75
2023/09/05 16:23:33;;;;;;;3.97;1.07;;;43.40;43.30;;;;;;4945670;29;20235;-75
2023/09/05 16:26:00;;;;;;;2.22;1.05;;;43.40;43.50;;;;;;4945991;29;20075;-73
2023/09/05 16:28:28;;;;;;;2.08;1.10;;;42.90;43.20;;;;;;4945271;29;20035;-74
2023/09/05 16:30:58;;;;;;;1.70;0.73;;;42.70;43.50;;;;;;4945755;29;20037;-73
2023/09/05 16:33:24;;;;;;;2.08;1.08;;;42.40;44.10;;;;;;4945201;29;20041;-74
2023/09/05 16:36:05;;;;;;;2.33;1.13;;;42.70;43.80;;;;;;4946511;29;20273;-74
2023/09/05 16:38:34;;;;;;;2.15;0.90;;;42.80;43.40;;;;;;4964618;28;20031;-74
2023/09/05 16:41:08;;;;;;;2.03;0.98;;;42.70;43.60;;;;;;4964655;28;20098;-74
2023/09/05 16:43:34;;;;;;;2.85;1.13;;;42.60;43.50;;;;;;4964938;28;20031;-73
2023/09/05 16:45:59;;;;;;;2.67;1.10;;;41.90;44.10;;;;;;4964784;28;20038;-72
2023/09/05 16:48:26;;;;;;;3.35;1.10;;;41.20;44.60;;;;;;4964000;28;20090;-73
2023/09/05 16:50:51;;;;;;;2.20;0.90;;;41.10;45.00;;;;;;4964759;28;20039;-74
2023/09/05 16:53:17;;;;;;;2.80;1.40;;;40.80;44.80;;;;;;4948085;28;20106;-74
2023/09/05 16:55:43;;;;;;;2.40;1.30;;;40.40;45.50;;;;;;4947391;29;20099;-74
2023/09/05 16:58:09;;;;;;;2.35;0.82;;;40.00;45.50;;;;;;4947724;29;20043;-75
2023/09/05 17:00:47;;;;;;;2.28;1.10;;;39.40;46.50;;;;;;4949471;29;20141;-76
2023/09/05 17:03:13;;;;;;;1.90;1.10;;;38.90;46.50;;;;;;4943246;29;20195;-73
2023/09/05 17:05:39;;;;;;;2.15;1.15;;;37.80;47.60;;;;;;4948918;29;20044;-73
2023/09/05 17:08:08;;;;;;;4.97;1.40;;;35.90;49.90;;;;;;4948792;29;20023;-73
2023/09/05 17:10:35;;;;;;;4.75;1.30;;;34.40;51.20;;;;;;4949136;29;20324;-73
2023/09/05 17:13:01;;;;;;;3.05;1.20;;;33.10;52.60;;;;;;4948824;29;20377;-73
2023/09/05 17:15:27;;;;;;;2.13;1.10;;;32.20;54.40;;;;;;4948264;29;20344;-75
2023/09/05 17:17:53;;;;;;;2.50;0.93;;;31.60;55.30;;;;;;4948582;29;20143;-73
2023/09/05 17:20:19;;;;;;;4.30;1.33;;;31.00;56.40;;;;;;4948774;29;20222;-73
2023/09/05 17:22:45;;;;;;;3.15;1.80;;;30.40;57.30;;;;;;4949066;29;20071;-74
2023/09/05 17:25:13;;;;;;;3.45;1.30;;;30.00;57.80;;;;;;4948426;29;20036;-75
2023/09/05 17:27:41;;;;;;;4.78;1.38;;;29.70;58.40;;;;;;4948985;29;20042;-74
2023/09/05 17:30:08;;;;;;;2.20;1.10;;;29.40;58.80;;;;;;4948781;29;20110;-75
2023/09/05 17:32:33;;;;;;;2.22;1.10;;;29.10;59.10;;;;;;4948018;29;20066;-73
2023/09/05 17:34:59;;;;;;;3.40;1.45;;;28.90;59.40;;;;;;4947377;29;20318;-74
2023/09/05 17:37:25;;;;;;;4.35;1.30;;;28.70;59.80;;;;;;4949198;29;20040;-74
2023/09/05 17:39:51;;;;;;;7.60;1.70;;;28.30;60.40;;;;;;4948653;29;20058;-74
2023/09/05 17:42:16;;;;;;;3.78;1.38;;;28.10;61.00;;;;;;4947942;29;20042;-74
2023/09/05 17:44:45;;;;;;;2.67;1.50;;;28.00;61.00;;;;;;4948705;29;20043;-74
2023/09/05 17:47:10;;;;;;;2.55;1.38;;;27.90;61.50;;;;;;4948209;29;20035;-75
2023/09/05 17:49:36;;;;;;;3.47;1.40;;;27.70;62.00;;;;;;4948586;29;20090;-73
2023/09/05 17:52:02;;;;;;;2.65;1.40;;;27.60;62.10;;;;;;4947958;29;20043;-74
2023/09/05 17:54:27;;;;;;;3.42;1.38;;;27.50;62.20;;;;;;4942419;29;20051;-74
2023/09/05 17:56:53;;;;;;;3.08;1.35;;;27.30;62.50;;;;;;4948494;29;20043;-75
2023/09/05 17:59:20;;;;;;;3.33;1.67;;;27.00;62.90;;;;;;4947616;29;20028;-75
2023/09/05 18:01:46;;;;;;;3.10;1.80;;;26.90;63.50;;;;;;4947904;29;20043;-73
2023/09/05 18:04:12;;;;;;;3.05;1.90;;;26.70;64.30;;;;;;4945123;29;20019;-74
2023/09/05 18:06:38;;;;;;;3.53;1.83;;;26.50;64.00;;;;;;4943883;29;20076;-74
2023/09/05 18:09:10;;;;;;;3.15;1.92;;;26.40;64.50;;;;;;4947861;29;20019;-74
2023/09/05 18:11:42;;;;;;;5.30;2.00;;;26.20;64.80;;;;;;4947294;29;20027;-74
2023/09/05 18:14:17;;;;;;;3.47;1.58;;;26.10;65.00;;;;;;4948005;29;20040;-77
2023/09/05 18:16:46;;;;;;;4.35;1.70;;;25.90;65.40;;;;;;4947746;29;20035;-75
2023/09/05 18:19:15;;;;;;;3.63;1.77;;;25.80;65.50;;;;;;4947114;29;20048;-76
2023/09/05 18:21:43;;;;;;;4.57;2.38;;;25.70;66.10;;;;;;4947592;29;20050;-75
2023/09/05 18:24:09;;;;;;;;;;;25.50;66.70;;;;;;4948297;29;20044;-75
2023/09/05 18:26:35;;;;;;;6.20;2.08;;;25.30;67.10;;;;;;4945840;29;19907;-77
2023/09/05 18:29:01;;;;;;;3.45;1.70;;;25.20;67.30;;;;;;4947073;29;20042;-75
2023/09/05 18:31:27;;;;;;;4.07;2.05;;;25.10;67.40;;;;;;4947439;29;20038;-75
2023/09/05 18:33:53;;;;;;;3.40;1.55;;;24.90;68.00;;;;;;4947399;29;20050;-74
2023/09/05 18:36:19;;;;;;;4.45;1.75;;;24.80;68.30;;;;;;4952105;29;20019;-76
2023/09/05 18:38:45;;;;;;;3.58;2.05;;;24.70;68.50;;;;;;4966887;28;20027;-76
2023/09/05 18:41:18;;;;;;;6.60;2.20;;;24.70;68.30;;;;;;4965639;29;20039;-75
2023/09/05 18:43:44;;;;;;;4.53;2.05;;;24.60;68.40;;;;;;4966356;28;20276;-75
2023/09/05 18:46:14;;;;;;;6.18;1.90;;;24.50;68.00;;;;;;4966714;28;20094;-74
2023/09/05 18:48:45;;;;;;;4.68;2.20;;;24.50;68.30;;;;;;4966985;29;20299;-76
2023/09/05 18:51:13;;;;;;;3.90;2.10;;;24.50;68.10;;;;;;4966834;28;20049;-74
2023/09/05 18:53:39;;;;;;;4.10;2.17;;;24.30;68.80;;;;;;4947673;28;20376;-75
2023/09/05 18:56:09;;;;;;;3.60;1.90;;;24.20;69.10;;;;;;4946244;29;20032;-76
2023/09/05 18:58:35;;;;;;;6.20;2.60;;;24.10;69.70;;;;;;4946634;29;20041;-75
2023/09/05 19:01:01;;;;;;;3.55;1.90;;;24.00;69.40;;;;;;4947088;29;20046;-74
2023/09/05 19:03:27;;;;;;;4.13;2.28;;;24.00;69.40;;;;;;4946428;29;20038;-74
2023/09/05 19:05:54;;;;;;;4.63;2.30;;;23.90;69.30;;;;;;4947122;29;20048;-75
2023/09/05 19:08:22;;;;;;;3.88;2.28;;;23.80;69.70;;;;;;4946690;29;20306;-74
2023/09/05 19:10:49;;;;;;;3.90;2.17;;;23.70;70.00;;;;;;4946956;29;20230;-75
2023/09/05 19:13:15;;;;;;;4.00;2.40;;;23.60;70.00;;;;;;4947122;29;20050;-76
2023/09/05 19:15:42;;;;;;;4.18;2.20;;;23.60;70.30;;;;;;4947028;29;20035;-76
2023/09/05 19:18:11;;;;;;;4.55;2.13;;;23.50;70.40;;;;;;4941940;29;20071;-75
2023/09/05 19:20:37;;;;;;;4.22;2.20;;;23.40;71.00;;;;;;4927294;29;20043;-76
2023/09/05 19:23:03;;;;;;;3.13;2.08;;;23.40;71.00;;;;;;4927921;29;20020;-75
2023/09/05 19:25:29;;;;;;;4.65;2.30;;;23.30;71.60;;;;;;4927435;29;20080;-75
2023/09/05 19:27:54;;;;;;;4.13;2.30;;;23.20;71.90;;;;;;4927461;29;20032;-75
2023/09/05 19:30:20;;;;;;;3.95;2.28;;;23.10;72.10;;;;;;4925737;29;20127;-75
2023/09/05 19:32:46;;;;;;;5.25;2.55;;;23.00;72.30;;;;;;4927259;29;20199;-76
2023/09/05 19:35:12;;;;;;;4.50;2.20;;;23.00;72.70;;;;;;4927756;29;20083;-75
2023/09/05 19:37:38;;;;;;;4.68;2.50;;;23.00;72.70;;;;;;4957599;29;20026;-75
2023/09/05 19:40:06;;;;;;;5.75;2.70;;;22.90;73.00;;;;;;4965762;28;20031;-74
2023/09/05 19:42:35;;;;;;;6.65;2.70;;;22.80;73.40;;;;;;4965217;28;20019;-75